Everettville, West Virginia
Current Conditions -  °F | °C
As of 8:53 PM on Sunday 23 Nov 2014 (Local Time) from KMGW Reporting Station
Overcast Overcast  
Wind Chill: 59°   Ceiling: 10000
Heat Index: 59°   Visibility: 10mi
Dew Point: 45°   Wind: 10mph
Humidity: 60%   Direction: 160°SSE
Pressure: 29.7"   Gusts: 17mph
Location:  39.56°N, 80.06°W
Report Text: KMGW 240153Z 16009G15KT 10SM OVC100 15/07 A2970 RMK AO2 RAB12E21 SLP053 P0000 T01500072
Loading
Personal Weather Stations






























Interactive Weather Map New forecast layout! Learn more

10-Day Weather Forecast

Advertisements
Track Severe Weather on mobile